N77ZE PAJN-PASI
Flight info
| Callsign | N77ZE |
|---|---|
| Flight time | 0h 42m |
| Altitude | 9000 |
| Route | JNU6 SSR CLUCK |
| Aircraft | PC12/L-SDFGRWY/S |
Departure
| Time | 2026-04-26 20:03 |
|---|---|
| Airport | Juneau International Airport (PAJN) |
Arrival
| Time | 2026-04-26 20:46 |
|---|---|
| Airport | Sitka Rocky Gutierrez Airport (PASI) |
| Time | Latitude | Longitude | Altitude | Speed | Heading |
|---|---|---|---|---|---|
| 2026-04-26 19:43 | 58.35924 | -134.59171 | 31 ft | 0 kts | 289° |
| 2026-04-26 19:55 | 58.35920 | -134.59141 | 31 ft | 0 kts | 274° |
| 2026-04-26 19:56 | 58.35909 | -134.59172 | 31 ft | 7 kts | 195° |
| 2026-04-26 19:57 | 58.35878 | -134.59078 | 31 ft | 11 kts | 123° |
| 2026-04-26 19:57 | 58.35807 | -134.59009 | 31 ft | 12 kts | 126° |
| 2026-04-26 19:57 | 58.35778 | -134.58842 | 31 ft | 15 kts | 105° |
| 2026-04-26 19:57 | 58.35749 | -134.58639 | 31 ft | 18 kts | 103° |
| 2026-04-26 19:58 | 58.35716 | -134.58387 | 31 ft | 21 kts | 104° |
| 2026-04-26 19:58 | 58.35674 | -134.58104 | 31 ft | 23 kts | 107° |
| 2026-04-26 19:58 | 58.35633 | -134.57806 | 31 ft | 24 kts | 103° |
| 2026-04-26 19:58 | 58.35590 | -134.57489 | 31 ft | 25 kts | 106° |
| 2026-04-26 19:59 | 58.35545 | -134.57168 | 31 ft | 25 kts | 106° |
| 2026-04-26 19:59 | 58.35499 | -134.56838 | 30 ft | 26 kts | 104° |
| 2026-04-26 19:59 | 58.35452 | -134.56497 | 30 ft | 27 kts | 105° |
| 2026-04-26 19:59 | 58.35401 | -134.56145 | 30 ft | 28 kts | 105° |
| 2026-04-26 20:00 | 58.35352 | -134.55792 | 29 ft | 28 kts | 103° |
| 2026-04-26 20:00 | 58.35305 | -134.55440 | 29 ft | 26 kts | 104° |
| 2026-04-26 20:00 | 58.35256 | -134.55295 | 29 ft | 0 kts | 174° |
| 2026-04-26 20:01 | 58.35254 | -134.55295 | 29 ft | 0 kts | 174° |
| 2026-04-26 20:02 | 58.35222 | -134.55304 | 29 ft | 10 kts | 195° |
| 2026-04-26 20:02 | 58.35192 | -134.55454 | 27 ft | 22 kts | 286° |
| 2026-04-26 20:02 | 58.35281 | -134.56104 | 30 ft | 76 kts | 284° |
| 2026-04-26 20:02 | 58.35332 | -134.56458 | 37 ft | 86 kts | 284° |
| 2026-04-26 20:03 | 58.35643 | -134.58540 | 420 ft | 106 kts | 285° |
| 2026-04-26 20:03 | 58.35844 | -134.60042 | 613 ft | 129 kts | 284° |
| 2026-04-26 20:03 | 58.36040 | -134.61867 | 931 ft | 149 kts | 280° |
| 2026-04-26 20:03 | 58.36207 | -134.63898 | 1374 ft | 156 kts | 277° |
| 2026-04-26 20:04 | 58.36327 | -134.65973 | 1805 ft | 162 kts | 275° |
| 2026-04-26 20:04 | 58.36432 | -134.68158 | 2203 ft | 169 kts | 274° |
| 2026-04-26 20:04 | 58.36494 | -134.70385 | 2619 ft | 173 kts | 272° |
| 2026-04-26 20:04 | 58.36495 | -134.72739 | 2931 ft | 179 kts | 268° |
| 2026-04-26 20:05 | 58.36422 | -134.75062 | 3389 ft | 177 kts | 266° |
| 2026-04-26 20:05 | 58.36341 | -134.77415 | 3801 ft | 177 kts | 268° |
| 2026-04-26 20:05 | 58.36262 | -134.79758 | 4209 ft | 178 kts | 265° |
| 2026-04-26 20:05 | 58.36145 | -134.82112 | 4601 ft | 179 kts | 266° |
| 2026-04-26 20:06 | 58.36114 | -134.83682 | 4865 ft | 179 kts | 269° |
| 2026-04-26 20:06 | 58.36138 | -134.86920 | 5156 ft | 192 kts | 271° |
| 2026-04-26 20:06 | 58.36138 | -134.88629 | 5287 ft | 195 kts | 266° |
| 2026-04-26 20:06 | 58.35795 | -134.91176 | 5509 ft | 200 kts | 247° |
| 2026-04-26 20:07 | 58.35048 | -134.93400 | 5960 ft | 197 kts | 231° |
| 2026-04-26 20:07 | 58.34134 | -134.95270 | 6454 ft | 195 kts | 225° |
| 2026-04-26 20:07 | 58.33072 | -134.96974 | 6753 ft | 202 kts | 219° |
| 2026-04-26 20:07 | 58.31936 | -134.98581 | 7088 ft | 203 kts | 218° |
| 2026-04-26 20:08 | 58.30800 | -135.00114 | 7529 ft | 201 kts | 217° |
| 2026-04-26 20:08 | 58.29637 | -135.01613 | 7883 ft | 203 kts | 217° |
| 2026-04-26 20:08 | 58.28463 | -135.03118 | 8154 ft | 207 kts | 216° |
| 2026-04-26 20:08 | 58.27255 | -135.04622 | 8511 ft | 206 kts | 216° |
| 2026-04-26 20:09 | 58.26069 | -135.06181 | 8816 ft | 209 kts | 218° |
| 2026-04-26 20:09 | 58.24878 | -135.07825 | 8940 ft | 218 kts | 218° |
| 2026-04-26 20:09 | 58.23633 | -135.09524 | 8961 ft | 227 kts | 218° |
| 2026-04-26 20:09 | 58.22317 | -135.11236 | 9059 ft | 230 kts | 216° |
| 2026-04-26 20:10 | 58.20958 | -135.12945 | 9055 ft | 235 kts | 216° |
| 2026-04-26 20:10 | 58.19611 | -135.14725 | 8995 ft | 240 kts | 218° |
| 2026-04-26 20:10 | 58.18370 | -135.16836 | 8992 ft | 239 kts | 227° |
| 2026-04-26 20:10 | 58.17224 | -135.19134 | 8994 ft | 240 kts | 230° |
| 2026-04-26 20:11 | 58.16084 | -135.21399 | 8994 ft | 239 kts | 224° |
| 2026-04-26 20:11 | 58.14577 | -135.22797 | 8998 ft | 244 kts | 199° |
| 2026-04-26 20:11 | 58.12907 | -135.23502 | 9001 ft | 246 kts | 194° |
| 2026-04-26 20:12 | 58.09607 | -135.25111 | 9000 ft | 245 kts | 203° |
| 2026-04-26 20:12 | 58.08028 | -135.26351 | 9001 ft | 245 kts | 207° |
| 2026-04-26 20:12 | 58.06486 | -135.27664 | 9002 ft | 246 kts | 207° |
| 2026-04-26 20:12 | 58.04921 | -135.29011 | 9001 ft | 246 kts | 207° |
| 2026-04-26 20:13 | 58.03359 | -135.30357 | 8998 ft | 246 kts | 207° |
| 2026-04-26 20:13 | 58.01839 | -135.31734 | 8996 ft | 244 kts | 212° |
| 2026-04-26 20:13 | 58.00369 | -135.33353 | 8992 ft | 243 kts | 212° |
| 2026-04-26 20:13 | 57.98840 | -135.34689 | 8993 ft | 246 kts | 202° |
| 2026-04-26 20:14 | 57.97171 | -135.35529 | 8992 ft | 248 kts | 195° |
| 2026-04-26 20:14 | 57.95477 | -135.36178 | 8990 ft | 248 kts | 195° |
| 2026-04-26 20:14 | 57.93815 | -135.36900 | 8985 ft | 248 kts | 197° |
| 2026-04-26 20:14 | 57.92130 | -135.37664 | 8987 ft | 249 kts | 197° |
| 2026-04-26 20:15 | 57.90436 | -135.38430 | 8979 ft | 248 kts | 197° |
| 2026-04-26 20:15 | 57.88770 | -135.39181 | 8976 ft | 249 kts | 197° |
| 2026-04-26 20:15 | 57.87070 | -135.39919 | 8978 ft | 250 kts | 197° |
| 2026-04-26 20:15 | 57.85378 | -135.40642 | 8974 ft | 251 kts | 197° |
| 2026-04-26 20:16 | 57.83665 | -135.41372 | 8971 ft | 250 kts | 197° |
| 2026-04-26 20:16 | 57.81984 | -135.42087 | 8974 ft | 250 kts | 197° |
| 2026-04-26 20:16 | 57.80280 | -135.42813 | 8974 ft | 250 kts | 197° |
| 2026-04-26 20:16 | 57.78598 | -135.43525 | 8972 ft | 250 kts | 197° |
| 2026-04-26 20:17 | 57.76899 | -135.44250 | 8976 ft | 250 kts | 197° |
| 2026-04-26 20:17 | 57.75188 | -135.44979 | 8975 ft | 251 kts | 196° |
| 2026-04-26 20:17 | 57.73501 | -135.45702 | 8974 ft | 251 kts | 197° |
| 2026-04-26 20:17 | 57.72370 | -135.46185 | 8969 ft | 250 kts | 196° |
| 2026-04-26 20:18 | 57.70112 | -135.47163 | 8968 ft | 249 kts | 197° |
| 2026-04-26 20:18 | 57.68413 | -135.47885 | 8979 ft | 251 kts | 197° |
| 2026-04-26 20:18 | 57.66723 | -135.48601 | 8976 ft | 251 kts | 197° |
| 2026-04-26 20:18 | 57.65001 | -135.49328 | 8980 ft | 253 kts | 196° |
| 2026-04-26 20:19 | 57.63298 | -135.50049 | 8978 ft | 253 kts | 197° |
| 2026-04-26 20:19 | 57.61574 | -135.50776 | 8978 ft | 253 kts | 197° |
| 2026-04-26 20:19 | 57.59874 | -135.51494 | 8978 ft | 253 kts | 197° |
| 2026-04-26 20:19 | 57.58149 | -135.52223 | 8978 ft | 252 kts | 196° |
| 2026-04-26 20:20 | 57.56453 | -135.52938 | 8986 ft | 251 kts | 197° |
| 2026-04-26 20:20 | 57.54734 | -135.53650 | 8983 ft | 252 kts | 196° |
| 2026-04-26 20:20 | 57.53016 | -135.54366 | 8982 ft | 250 kts | 198° |
| 2026-04-26 20:20 | 57.51399 | -135.55337 | 8980 ft | 245 kts | 205° |
| 2026-04-26 20:21 | 57.49826 | -135.56536 | 8981 ft | 242 kts | 207° |
| 2026-04-26 20:21 | 57.48272 | -135.57738 | 8980 ft | 241 kts | 204° |
| 2026-04-26 20:21 | 57.46658 | -135.58481 | 8984 ft | 240 kts | 194° |
| 2026-04-26 20:21 | 57.44996 | -135.58968 | 8984 ft | 241 kts | 192° |
| 2026-04-26 20:22 | 57.43342 | -135.59385 | 8994 ft | 242 kts | 192° |
| 2026-04-26 20:22 | 57.41691 | -135.59901 | 8995 ft | 243 kts | 194° |
| 2026-04-26 20:22 | 57.40024 | -135.60470 | 8995 ft | 243 kts | 194° |
| 2026-04-26 20:22 | 57.38357 | -135.61045 | 8995 ft | 243 kts | 194° |
| 2026-04-26 20:23 | 57.36682 | -135.61619 | 8998 ft | 243 kts | 194° |
| 2026-04-26 20:23 | 57.35002 | -135.61747 | 8984 ft | 245 kts | 179° |
| 2026-04-26 20:23 | 57.33295 | -135.61470 | 8994 ft | 246 kts | 179° |
| 2026-04-26 20:23 | 57.31602 | -135.61277 | 8991 ft | 246 kts | 180° |
| 2026-04-26 20:24 | 57.29880 | -135.61070 | 9000 ft | 247 kts | 180° |
| 2026-04-26 20:24 | 57.28176 | -135.60834 | 8993 ft | 248 kts | 179° |
| 2026-04-26 20:24 | 57.26404 | -135.60590 | 8598 ft | 261 kts | 179° |
| 2026-04-26 20:24 | 57.24553 | -135.60339 | 8214 ft | 266 kts | 179° |
| 2026-04-26 20:25 | 57.22738 | -135.60088 | 7834 ft | 264 kts | 179° |
| 2026-04-26 20:25 | 57.21518 | -135.59920 | 7579 ft | 263 kts | 179° |
| 2026-04-26 20:25 | 57.19075 | -135.59591 | 7073 ft | 262 kts | 180° |
| 2026-04-26 20:25 | 57.17277 | -135.59350 | 6709 ft | 262 kts | 180° |
| 2026-04-26 20:26 | 57.15451 | -135.59105 | 6322 ft | 261 kts | 179° |
| 2026-04-26 20:26 | 57.13639 | -135.58853 | 5930 ft | 260 kts | 179° |
| 2026-04-26 20:26 | 57.11854 | -135.58606 | 5540 ft | 258 kts | 179° |
| 2026-04-26 20:26 | 57.10064 | -135.58365 | 5154 ft | 256 kts | 179° |
| 2026-04-26 20:27 | 57.08286 | -135.58126 | 4759 ft | 253 kts | 179° |
| 2026-04-26 20:27 | 57.06552 | -135.57893 | 4375 ft | 250 kts | 180° |
| 2026-04-26 20:27 | 57.04816 | -135.57658 | 3977 ft | 247 kts | 180° |
| 2026-04-26 20:27 | 57.03122 | -135.57432 | 3589 ft | 244 kts | 178° |
| 2026-04-26 20:28 | 57.01450 | -135.57207 | 3202 ft | 242 kts | 179° |
| 2026-04-26 20:28 | 56.99788 | -135.56983 | 3003 ft | 233 kts | 178° |
| 2026-04-26 20:28 | 56.98223 | -135.56772 | 3001 ft | 219 kts | 180° |
| 2026-04-26 20:28 | 56.96732 | -135.56574 | 2999 ft | 209 kts | 180° |
| 2026-04-26 20:29 | 56.95322 | -135.56383 | 3000 ft | 202 kts | 178° |
| 2026-04-26 20:29 | 56.93930 | -135.56195 | 2992 ft | 197 kts | 180° |
| 2026-04-26 20:29 | 56.92574 | -135.56013 | 2994 ft | 193 kts | 181° |
| 2026-04-26 20:29 | 56.91258 | -135.55840 | 2988 ft | 190 kts | 181° |
| 2026-04-26 20:30 | 56.89939 | -135.55664 | 2992 ft | 189 kts | 181° |
| 2026-04-26 20:30 | 56.88621 | -135.55490 | 2996 ft | 189 kts | 181° |
| 2026-04-26 20:30 | 56.87313 | -135.55317 | 2997 ft | 190 kts | 180° |
| 2026-04-26 20:30 | 56.85988 | -135.55141 | 2991 ft | 190 kts | 179° |
| 2026-04-26 20:31 | 56.84777 | -135.55644 | 2983 ft | 177 kts | 220° |
| 2026-04-26 20:31 | 56.83966 | -135.57264 | 2987 ft | 171 kts | 239° |
| 2026-04-26 20:31 | 56.83233 | -135.58987 | 2993 ft | 175 kts | 238° |
| 2026-04-26 20:31 | 56.82472 | -135.60765 | 2996 ft | 178 kts | 238° |
| 2026-04-26 20:32 | 56.81714 | -135.62536 | 2998 ft | 180 kts | 239° |
| 2026-04-26 20:32 | 56.80700 | -135.63908 | 3005 ft | 192 kts | 199° |
| 2026-04-26 20:32 | 56.79374 | -135.63590 | 3013 ft | 199 kts | 150° |
| 2026-04-26 20:32 | 56.78528 | -135.61697 | 3011 ft | 196 kts | 102° |
| 2026-04-26 20:33 | 56.78644 | -135.59357 | 3012 ft | 182 kts | 54° |
| 2026-04-26 20:33 | 56.79510 | -135.57864 | 3011 ft | 170 kts | 27° |
| 2026-04-26 20:33 | 56.80537 | -135.56802 | 3010 ft | 168 kts | 18° |
| 2026-04-26 20:33 | 56.81632 | -135.56250 | 3011 ft | 164 kts | 6° |
| 2026-04-26 20:34 | 56.82760 | -135.55852 | 3011 ft | 165 kts | 6° |
| 2026-04-26 20:34 | 56.83896 | -135.55504 | 3003 ft | 164 kts | 359° |
| 2026-04-26 20:34 | 56.85048 | -135.55409 | 2940 ft | 173 kts | 0° |
| 2026-04-26 20:34 | 56.86308 | -135.54835 | 2530 ft | 200 kts | 21° |
| 2026-04-26 20:35 | 56.87529 | -135.53633 | 2497 ft | 194 kts | 28° |
| 2026-04-26 20:35 | 56.88663 | -135.52401 | 2490 ft | 188 kts | 27° |
| 2026-04-26 20:35 | 56.89766 | -135.51236 | 2486 ft | 181 kts | 24° |
| 2026-04-26 20:35 | 56.90850 | -135.50133 | 2487 ft | 174 kts | 26° |
| 2026-04-26 20:36 | 56.91890 | -135.49074 | 2493 ft | 167 kts | 26° |
| 2026-04-26 20:36 | 56.92881 | -135.48069 | 2488 ft | 162 kts | 24° |
| 2026-04-26 20:36 | 56.93860 | -135.47073 | 2489 ft | 159 kts | 25° |
| 2026-04-26 20:36 | 56.94807 | -135.46102 | 2490 ft | 156 kts | 26° |
| 2026-04-26 20:37 | 56.95757 | -135.45129 | 2424 ft | 157 kts | 22° |
| 2026-04-26 20:37 | 56.96717 | -135.44369 | 2153 ft | 145 kts | 19° |
| 2026-04-26 20:37 | 56.97611 | -135.43628 | 1876 ft | 138 kts | 21° |
| 2026-04-26 20:37 | 56.98475 | -135.42911 | 1630 ft | 134 kts | 19° |
| 2026-04-26 20:38 | 56.99313 | -135.42222 | 1389 ft | 132 kts | 20° |
| 2026-04-26 20:38 | 57.00153 | -135.41537 | 1159 ft | 134 kts | 18° |
| 2026-04-26 20:38 | 57.01005 | -135.40844 | 1000 ft | 129 kts | 17° |
| 2026-04-26 20:38 | 57.01694 | -135.39988 | 996 ft | 121 kts | 54° |
| 2026-04-26 20:39 | 57.01623 | -135.38433 | 856 ft | 128 kts | 121° |
| 2026-04-26 20:39 | 57.01345 | -135.37511 | 846 ft | 125 kts | 120° |
| 2026-04-26 20:39 | 57.01344 | -135.35485 | 646 ft | 127 kts | 47° |
| 2026-04-26 20:39 | 57.01892 | -135.34300 | 627 ft | 117 kts | 49° |
| 2026-04-26 20:40 | 57.02449 | -135.33189 | 472 ft | 118 kts | 25° |
| 2026-04-26 20:40 | 57.03195 | -135.33059 | 383 ft | 103 kts | 323° |
| 2026-04-26 20:40 | 57.03640 | -135.34056 | 198 ft | 102 kts | 298° |
| 2026-04-26 20:40 | 57.04112 | -135.35055 | 143 ft | 108 kts | 309° |
| 2026-04-26 20:41 | 57.04626 | -135.36074 | 462 ft | 115 kts | 309° |
| 2026-04-26 20:41 | 57.05251 | -135.37238 | 772 ft | 138 kts | 314° |
| 2026-04-26 20:41 | 57.05907 | -135.38442 | 1311 ft | 120 kts | 309° |
| 2026-04-26 20:41 | 57.06019 | -135.39851 | 1343 ft | 131 kts | 234° |
| 2026-04-26 20:42 | 57.05303 | -135.40929 | 1378 ft | 132 kts | 217° |
| 2026-04-26 20:42 | 57.04447 | -135.41600 | 1386 ft | 144 kts | 177° |
| 2026-04-26 20:42 | 57.03644 | -135.40420 | 1240 ft | 154 kts | 128° |
| 2026-04-26 20:42 | 57.03080 | -135.38801 | 1317 ft | 148 kts | 118° |
| 2026-04-26 20:43 | 57.02620 | -135.37100 | 1245 ft | 151 kts | 114° |
| 2026-04-26 20:43 | 57.02204 | -135.35491 | 1325 ft | 125 kts | 120° |
| 2026-04-26 20:43 | 57.01736 | -135.34159 | 1221 ft | 126 kts | 123° |
| 2026-04-26 20:43 | 57.01274 | -135.32772 | 1087 ft | 130 kts | 109° |
| 2026-04-26 20:44 | 57.01307 | -135.31144 | 877 ft | 131 kts | 62° |
| 2026-04-26 20:44 | 57.02038 | -135.30481 | 564 ft | 123 kts | 332° |
| 2026-04-26 20:44 | 57.02299 | -135.31752 | 432 ft | 105 kts | 284° |
| 2026-04-26 20:44 | 57.02784 | -135.32690 | 405 ft | 103 kts | 312° |
| 2026-04-26 20:45 | 57.03289 | -135.33635 | 308 ft | 104 kts | 311° |
| 2026-04-26 20:45 | 57.03816 | -135.34554 | 179 ft | 103 kts | 311° |
| 2026-04-26 20:45 | 57.04306 | -135.35430 | 54 ft | 92 kts | 310° |
| 2026-04-26 20:45 | 57.04718 | -135.36183 | 34 ft | 73 kts | 315° |
| 2026-04-26 20:46 | 57.04928 | -135.36565 | 33 ft | 31 kts | 311° |
| 2026-04-26 20:46 | 57.05084 | -135.36843 | 35 ft | 30 kts | 318° |
| 2026-04-26 20:46 | 57.05226 | -135.37092 | 36 ft | 27 kts | 314° |
| 2026-04-26 20:46 | 57.05332 | -135.37245 | 36 ft | 15 kts | 0° |
| 2026-04-26 20:47 | 57.05390 | -135.37180 | 35 ft | 0 kts | 62° |
| 2026-04-26 20:47 | 57.05394 | -135.37143 | 35 ft | 9 kts | 95° |
| 2026-04-26 20:48 | 57.05335 | -135.37008 | 35 ft | 17 kts | 134° |
| 2026-04-26 20:48 | 57.05244 | -135.36842 | 35 ft | 20 kts | 136° |
| 2026-04-26 20:48 | 57.05140 | -135.36663 | 34 ft | 21 kts | 135° |
| 2026-04-26 20:48 | 57.05057 | -135.36508 | 33 ft | 12 kts | 134° |
| 2026-04-26 20:49 | 57.05065 | -135.36395 | 33 ft | 9 kts | 104° |
| 2026-04-26 20:49 | 57.05055 | -135.36370 | 33 ft | 0 kts | 133° |